createdAt,value
2022-10-08T00:00:47.547Z,7.00
2022-10-08T00:01:47.567Z,7.90
2022-10-08T00:02:48.090Z,8.40
2022-10-08T00:03:47.728Z,7.80
2022-10-08T00:04:47.471Z,7.40
2022-10-08T00:05:47.455Z,7.50
2022-10-08T00:06:47.433Z,7.20
2022-10-08T00:07:47.420Z,7.20
2022-10-08T00:08:47.395Z,6.80
2022-10-08T00:09:47.381Z,6.50
2022-10-08T00:10:47.363Z,6.60
2022-10-08T00:11:47.342Z,7.00
2022-10-08T00:12:47.730Z,6.30
2022-10-08T00:13:47.308Z,6.20
2022-10-08T00:14:47.287Z,6.70
2022-10-08T00:15:47.366Z,7.00
2022-10-08T00:16:47.253Z,6.50
2022-10-08T00:17:47.235Z,7.10
2022-10-08T00:18:47.211Z,6.30
2022-10-08T00:19:47.215Z,6.50
2022-10-08T00:20:47.177Z,6.00
2022-10-08T00:21:47.160Z,6.40
2022-10-08T00:22:47.424Z,6.70
2022-10-08T00:23:47.119Z,6.70
2022-10-08T00:24:47.102Z,6.70
2022-10-08T00:25:47.083Z,7.10
2022-10-08T00:26:47.060Z,7.20
2022-10-08T00:27:47.042Z,6.70
2022-10-08T00:28:47.022Z,6.20
2022-10-08T00:29:47.004Z,6.20
2022-10-08T00:30:46.985Z,6.50
2022-10-08T00:31:47.071Z,6.50
2022-10-08T00:32:47.212Z,6.20
2022-10-08T00:33:46.933Z,6.50
2022-10-08T00:34:46.914Z,7.30
2022-10-08T00:35:46.916Z,6.10
2022-10-08T00:36:46.871Z,6.20
2022-10-08T00:37:46.856Z,6.50
2022-10-08T00:38:46.838Z,6.70
2022-10-08T00:39:46.818Z,6.20
2022-10-08T00:40:46.797Z,6.30
2022-10-08T00:41:46.779Z,6.80
2022-10-08T00:42:47.003Z,6.40
2022-10-08T00:43:46.739Z,6.40
2022-10-08T00:44:46.728Z,6.60
2022-10-08T00:45:46.774Z,6.60
2022-10-08T00:46:46.685Z,6.00
2022-10-08T00:47:46.668Z,6.60
2022-10-08T00:48:46.646Z,6.70
2022-10-08T00:49:46.629Z,6.30
2022-10-08T00:50:46.609Z,6.60
2022-10-08T00:51:46.611Z,6.40
2022-10-08T00:52:46.940Z,6.40
2022-10-08T00:53:46.558Z,6.30
2022-10-08T00:54:46.537Z,6.40
2022-10-08T00:55:46.511Z,6.20
2022-10-08T00:56:46.496Z,6.20
2022-10-08T00:57:46.480Z,7.00
2022-10-08T00:58:46.456Z,6.10
2022-10-08T00:59:46.437Z,6.30
2022-10-08T01:00:46.490Z,6.70
2022-10-08T01:01:46.510Z,7.10
2022-10-08T01:02:46.596Z,6.30
2022-10-08T01:03:46.360Z,6.20
2022-10-08T01:04:46.337Z,7.00
2022-10-08T01:05:46.327Z,6.20
2022-10-08T01:06:46.301Z,6.00
2022-10-08T01:07:46.304Z,6.30
2022-10-08T01:08:46.265Z,6.60
2022-10-08T01:09:46.243Z,5.80
2022-10-08T01:10:46.226Z,6.30
2022-10-08T01:11:46.208Z,7.10
2022-10-08T01:12:46.557Z,6.10
2022-10-08T01:13:46.170Z,6.70
2022-10-08T01:14:46.152Z,6.40
2022-10-08T01:15:46.130Z,5.60
2022-10-08T01:16:46.209Z,6.50
2022-10-08T01:17:46.096Z,6.00
2022-10-08T01:18:46.075Z,6.20
2022-10-08T01:19:46.055Z,6.00
2022-10-08T01:20:46.038Z,6.20
2022-10-08T01:21:46.014Z,6.60
2022-10-08T01:22:46.216Z,5.80
2022-10-08T01:23:46.001Z,5.80
2022-10-08T01:24:45.961Z,6.30
2022-10-08T01:25:45.940Z,6.00
2022-10-08T01:26:45.919Z,6.10
2022-10-08T01:27:45.904Z,6.10
2022-10-08T01:28:45.933Z,6.10
2022-10-08T01:29:45.865Z,6.60
2022-10-08T01:30:45.841Z,7.10
2022-10-08T01:31:45.931Z,6.40
2022-10-08T01:32:46.073Z,6.30
2022-10-08T01:33:45.790Z,5.70
2022-10-08T01:34:45.763Z,6.80
2022-10-08T01:35:45.753Z,6.20
2022-10-08T01:36:45.727Z,5.90
2022-10-08T01:37:45.713Z,5.80
2022-10-08T01:38:45.690Z,5.90
2022-10-08T01:39:45.807Z,6.10
2022-10-08T01:40:45.653Z,5.90
2022-10-08T01:41:45.637Z,6.60
2022-10-08T01:42:45.967Z,6.00
2022-10-08T01:43:45.599Z,5.80
2022-10-08T01:44:45.576Z,5.90
2022-10-08T01:45:45.617Z,6.10
2022-10-08T01:46:45.540Z,5.90
2022-10-08T01:47:45.523Z,5.80
2022-10-08T01:48:45.503Z,5.80
2022-10-08T01:49:45.486Z,5.60
2022-10-08T01:50:45.463Z,5.80
2022-10-08T01:51:45.444Z,5.80
2022-10-08T01:52:45.727Z,5.20
2022-10-08T01:53:45.407Z,5.10
2022-10-08T01:54:45.392Z,6.30
2022-10-08T01:55:45.394Z,6.10
2022-10-08T01:56:45.349Z,5.80
2022-10-08T01:57:45.332Z,5.80
2022-10-08T01:58:45.307Z,5.70
2022-10-08T01:59:45.292Z,6.10
2022-10-08T02:00:45.349Z,6.00
2022-10-08T02:01:45.302Z,5.60
2022-10-08T02:02:45.535Z,5.30
2022-10-08T02:03:45.219Z,5.80
2022-10-08T02:04:45.203Z,5.70
2022-10-08T02:05:45.177Z,5.80
2022-10-08T02:06:45.152Z,6.30
2022-10-08T02:07:45.135Z,6.10
2022-10-08T02:08:45.116Z,6.00
2022-10-08T02:09:45.101Z,6.00
2022-10-08T02:10:45.079Z,6.00
2022-10-08T02:11:45.079Z,5.50
2022-10-08T02:12:45.551Z,5.80
2022-10-08T02:13:45.022Z,5.80
2022-10-08T02:14:45.001Z,5.10
2022-10-08T02:15:44.989Z,6.10
2022-10-08T02:16:45.015Z,5.60
2022-10-08T02:17:44.944Z,5.20
2022-10-08T02:18:44.925Z,6.00
2022-10-08T02:19:44.906Z,5.50
2022-10-08T02:20:44.892Z,6.20
2022-10-08T02:21:44.869Z,4.70
2022-10-08T02:22:45.276Z,5.70
2022-10-08T02:23:44.830Z,5.00
2022-10-08T02:24:44.813Z,5.20
2022-10-08T02:25:44.794Z,6.30
2022-10-08T02:26:44.775Z,6.00
2022-10-08T02:27:44.781Z,6.20
2022-10-08T02:28:44.766Z,5.50
2022-10-08T02:29:44.722Z,5.50
2022-10-08T02:30:44.706Z,5.60
2022-10-08T02:31:44.720Z,6.20
2022-10-08T02:32:44.950Z,5.20
2022-10-08T02:33:44.650Z,5.90
2022-10-08T02:34:44.623Z,5.30
2022-10-08T02:35:44.606Z,6.50
2022-10-08T02:36:44.584Z,5.90
2022-10-08T02:37:44.572Z,5.20
2022-10-08T02:38:44.549Z,5.30
2022-10-08T02:39:44.534Z,5.50
2022-10-08T02:40:44.511Z,5.50
2022-10-08T02:41:44.490Z,5.20
2022-10-08T02:42:44.817Z,5.90
2022-10-08T02:43:44.477Z,6.20
2022-10-08T02:44:44.437Z,5.70
2022-10-08T02:45:44.561Z,6.00
2022-10-08T02:46:44.398Z,5.10
2022-10-08T02:47:44.383Z,5.70
2022-10-08T02:48:44.359Z,5.40
2022-10-08T02:49:44.343Z,5.80
2022-10-08T02:50:44.324Z,5.10
2022-10-08T02:51:44.307Z,5.50
2022-10-08T02:52:44.577Z,5.80
2022-10-08T02:53:44.264Z,5.80
2022-10-08T02:54:44.248Z,5.40
2022-10-08T02:55:44.226Z,5.60
2022-10-08T02:56:44.229Z,5.20
2022-10-08T02:57:44.190Z,5.80
2022-10-08T02:58:44.171Z,5.60
2022-10-08T02:59:44.172Z,5.20
2022-10-08T03:00:44.137Z,5.50
2022-10-08T03:01:44.118Z,5.60
2022-10-08T03:02:44.461Z,5.30
2022-10-08T03:03:44.077Z,5.80
2022-10-08T03:04:44.057Z,5.20
2022-10-08T03:05:44.046Z,5.40
2022-10-08T03:06:44.021Z,5.80
2022-10-08T03:07:44.010Z,4.80
2022-10-08T03:08:43.979Z,5.70
2022-10-08T03:09:43.960Z,5.80
2022-10-08T03:10:43.940Z,4.80
2022-10-08T03:11:43.924Z,5.60
2022-10-08T03:12:44.140Z,5.00
2022-10-08T03:13:43.889Z,5.60
2022-10-08T03:14:43.861Z,5.80
2022-10-08T03:15:43.873Z,5.70
2022-10-08T03:16:43.933Z,5.80
2022-10-08T03:17:43.815Z,5.20
2022-10-08T03:18:43.798Z,6.00
2022-10-08T03:19:43.780Z,5.00
2022-10-08T03:20:43.751Z,5.30
2022-10-08T03:21:43.733Z,5.20
2022-10-08T03:22:43.865Z,5.50
2022-10-08T03:23:43.698Z,5.20
2022-10-08T03:24:43.679Z,5.20
2022-10-08T03:25:43.659Z,5.20
2022-10-08T03:26:43.639Z,5.30
2022-10-08T03:27:43.627Z,4.90
2022-10-08T03:28:43.641Z,5.10
2022-10-08T03:29:43.587Z,5.50
2022-10-08T03:30:43.601Z,4.90
2022-10-08T03:31:43.561Z,4.90
2022-10-08T03:32:43.632Z,4.40
2022-10-08T03:33:43.515Z,4.90
2022-10-08T03:34:43.489Z,4.90
2022-10-08T03:35:43.468Z,4.80
2022-10-08T03:36:43.454Z,5.00
2022-10-08T03:37:43.431Z,5.30
2022-10-08T03:38:43.410Z,4.90
2022-10-08T03:39:43.399Z,5.90
2022-10-08T03:40:43.377Z,4.90
2022-10-08T03:41:43.357Z,4.50
2022-10-08T03:42:43.376Z,5.50
2022-10-08T03:43:43.323Z,5.30
2022-10-08T03:44:43.298Z,5.60
2022-10-08T03:45:43.332Z,5.30
2022-10-08T03:46:43.269Z,4.70
2022-10-08T03:47:43.267Z,5.30
2022-10-08T03:48:43.226Z,5.10
2022-10-08T03:49:43.211Z,5.40
2022-10-08T03:50:43.184Z,5.00
2022-10-08T03:51:43.174Z,5.50
2022-10-08T03:52:43.147Z,5.00
2022-10-08T03:53:43.131Z,5.10
2022-10-08T03:54:43.110Z,5.30
2022-10-08T03:55:43.094Z,5.20
2022-10-08T03:56:43.072Z,5.50
2022-10-08T03:57:43.056Z,5.10
2022-10-08T03:58:43.033Z,5.60
2022-10-08T03:59:43.038Z,5.10
2022-10-08T04:00:42.998Z,5.80
2022-10-08T04:01:43.039Z,5.70
2022-10-08T04:02:43.033Z,5.60
2022-10-08T04:03:42.968Z,5.10
2022-10-08T04:04:42.921Z,5.60
2022-10-08T04:05:42.907Z,5.40
2022-10-08T04:06:42.883Z,5.30
2022-10-08T04:07:42.869Z,6.20
2022-10-08T04:08:42.844Z,5.50
2022-10-08T04:09:42.832Z,5.60
2022-10-08T04:10:42.815Z,5.60
2022-10-08T04:11:42.792Z,5.70
2022-10-08T04:12:42.771Z,6.50
2022-10-08T04:13:42.753Z,5.40
2022-10-08T04:14:42.730Z,4.90
2022-10-08T04:15:42.818Z,6.20
2022-10-08T04:16:42.691Z,6.30
2022-10-08T04:17:42.678Z,5.70
2022-10-08T04:18:42.658Z,6.00
2022-10-08T04:19:42.657Z,5.80
2022-10-08T04:20:42.631Z,6.00
2022-10-08T04:21:42.614Z,6.30
2022-10-08T04:22:42.579Z,5.40
2022-10-08T04:23:42.561Z,5.90
2022-10-08T04:24:42.543Z,6.20
2022-10-08T04:25:42.523Z,6.20
2022-10-08T04:26:42.507Z,6.90
2022-10-08T04:27:42.489Z,6.20
2022-10-08T04:28:42.509Z,6.30
2022-10-08T04:29:42.449Z,6.30
2022-10-08T04:30:42.442Z,5.90
2022-10-08T04:31:42.412Z,6.70
2022-10-08T04:32:42.393Z,6.50
2022-10-08T04:33:42.373Z,6.10
2022-10-08T04:34:42.356Z,6.70
2022-10-08T04:35:42.355Z,7.00
2022-10-08T04:36:42.316Z,6.70
2022-10-08T04:37:42.302Z,6.30
2022-10-08T04:38:42.275Z,6.90
2022-10-08T04:39:42.264Z,7.00
2022-10-08T04:40:42.237Z,7.50
2022-10-08T04:41:42.221Z,7.30
2022-10-08T04:42:42.206Z,6.90
2022-10-08T04:43:42.186Z,7.40
2022-10-08T04:44:42.162Z,7.50
2022-10-08T04:45:42.147Z,7.40
2022-10-08T04:46:42.263Z,7.60
2022-10-08T04:47:42.107Z,7.50
2022-10-08T04:48:42.091Z,7.00
2022-10-08T04:49:42.073Z,7.70
2022-10-08T04:50:42.051Z,7.80
2022-10-08T04:51:42.057Z,7.80
2022-10-08T04:52:42.011Z,7.70
2022-10-08T04:53:41.999Z,7.90
2022-10-08T04:54:41.977Z,7.80
2022-10-08T04:55:41.954Z,7.60
2022-10-08T04:56:41.939Z,8.00
2022-10-08T04:57:41.917Z,7.10
2022-10-08T04:58:41.901Z,7.10
2022-10-08T04:59:59.481Z,7.90
2022-10-08T05:00:41.860Z,8.60
2022-10-08T05:01:41.921Z,7.50
2022-10-08T05:02:41.850Z,9.10
2022-10-08T05:03:41.813Z,8.10
2022-10-08T05:04:41.786Z,8.40
2022-10-08T05:05:41.767Z,9.20
2022-10-08T05:06:41.751Z,8.30
2022-10-08T05:07:41.761Z,8.20
2022-10-08T05:08:41.712Z,9.50
2022-10-08T05:09:41.691Z,9.10
2022-10-08T05:10:41.678Z,8.90
2022-10-08T05:11:41.653Z,9.60
2022-10-08T05:12:41.639Z,9.50
2022-10-08T05:13:41.619Z,9.60
2022-10-08T05:14:41.598Z,10.00
2022-10-08T05:15:41.636Z,9.30
2022-10-08T05:16:41.558Z,9.00
2022-10-08T05:17:41.542Z,9.70
2022-10-08T05:18:41.525Z,9.40
2022-10-08T05:19:41.503Z,9.90
2022-10-08T05:20:41.482Z,9.50
2022-10-08T05:21:41.463Z,9.90
2022-10-08T05:22:41.442Z,10.20
2022-10-08T05:23:41.445Z,10.90
2022-10-08T05:24:41.411Z,9.90
2022-10-08T05:25:41.386Z,9.40
2022-10-08T05:26:58.826Z,10.10
2022-10-08T05:27:41.350Z,9.60
2022-10-08T05:28:41.401Z,9.70
2022-10-08T05:29:41.319Z,10.30
2022-10-08T05:30:41.293Z,10.30
2022-10-08T05:31:41.275Z,9.60
2022-10-08T05:32:41.264Z,10.00
2022-10-08T05:33:41.237Z,9.30
2022-10-08T05:34:41.217Z,10.00
2022-10-08T05:35:41.199Z,9.80
2022-10-08T05:36:41.177Z,10.60
2022-10-08T05:37:41.163Z,10.10
2022-10-08T05:38:41.140Z,10.70
2022-10-08T05:39:41.147Z,9.90
2022-10-08T05:40:41.105Z,10.50
2022-10-08T05:41:41.084Z,10.60
2022-10-08T05:42:41.070Z,10.90
2022-10-08T05:43:41.043Z,10.40
2022-10-08T05:44:44.792Z,10.00
2022-10-08T05:45:41.009Z,10.70
2022-10-08T05:46:41.051Z,9.90
2022-10-08T05:47:40.967Z,10.60
2022-10-08T05:48:40.954Z,10.90
2022-10-08T05:49:40.929Z,10.30
2022-10-08T05:50:40.916Z,10.00
2022-10-08T05:51:40.898Z,9.90
2022-10-08T05:52:40.875Z,10.40
2022-10-08T05:53:40.857Z,10.30
2022-10-08T05:54:40.834Z,10.70
2022-10-08T05:55:40.837Z,11.20
2022-10-08T05:56:40.798Z,10.50
2022-10-08T05:57:40.779Z,11.50
2022-10-08T05:58:40.758Z,10.90
2022-10-08T05:59:40.743Z,10.60
2022-10-08T06:00:40.722Z,11.70
2022-10-08T06:01:40.711Z,10.80
2022-10-08T06:02:40.769Z,11.50
2022-10-08T06:03:40.666Z,11.40
2022-10-08T06:04:40.706Z,11.90
2022-10-08T06:05:40.625Z,11.20
2022-10-08T06:06:40.627Z,11.20
2022-10-08T06:07:40.590Z,12.00
2022-10-08T06:08:40.569Z,11.70
2022-10-08T06:09:40.553Z,12.30
2022-10-08T06:10:40.532Z,11.80
2022-10-08T06:11:40.539Z,11.60
2022-10-08T06:12:40.495Z,12.00
2022-10-08T06:13:40.477Z,11.70
2022-10-08T06:14:40.462Z,11.00
2022-10-08T06:15:40.438Z,11.00
2022-10-08T06:16:40.510Z,11.40
2022-10-08T06:17:40.402Z,11.50
2022-10-08T06:18:40.393Z,11.40
2022-10-08T06:19:40.359Z,11.30
2022-10-08T06:20:40.345Z,12.60
2022-10-08T06:21:40.325Z,11.80
2022-10-08T06:22:40.303Z,11.10
2022-10-08T06:23:40.286Z,11.00
2022-10-08T06:24:40.268Z,11.60
2022-10-08T06:25:40.250Z,12.10
2022-10-08T06:26:40.229Z,12.00
2022-10-08T06:27:40.233Z,12.50
2022-10-08T06:28:40.266Z,11.90
2022-10-08T06:29:40.173Z,11.80
2022-10-08T06:30:40.156Z,11.30
2022-10-08T06:31:40.317Z,12.20
2022-10-08T06:32:40.117Z,11.70
2022-10-08T06:33:40.098Z,11.70
2022-10-08T06:34:40.079Z,11.90
2022-10-08T06:35:40.059Z,11.60
2022-10-08T06:36:40.050Z,12.30
2022-10-08T06:37:40.021Z,11.60
2022-10-08T06:38:40.003Z,11.90
2022-10-08T06:39:41.993Z,12.50
2022-10-08T06:40:39.968Z,11.80
2022-10-08T06:41:39.952Z,11.60
2022-10-08T06:42:39.927Z,12.00
2022-10-08T06:43:39.927Z,11.80
2022-10-08T06:44:39.889Z,11.50
2022-10-08T06:45:39.871Z,11.60
2022-10-08T06:46:39.920Z,12.70
2022-10-08T06:47:39.833Z,12.20
2022-10-08T06:48:39.816Z,11.50
2022-10-08T06:49:39.798Z,12.10
2022-10-08T06:50:39.775Z,11.00
2022-10-08T06:51:39.765Z,10.50
2022-10-08T06:52:39.739Z,10.80
2022-10-08T06:53:39.733Z,10.90
2022-10-08T06:54:39.709Z,10.60
2022-10-08T06:55:39.685Z,10.80
2022-10-08T06:56:39.662Z,10.70
2022-10-08T06:57:39.649Z,11.60
2022-10-08T06:58:39.626Z,10.60
2022-10-08T06:59:39.638Z,11.20
2022-10-08T07:00:39.639Z,10.90
2022-10-08T07:01:39.760Z,10.30
2022-10-08T07:02:39.639Z,10.20
2022-10-08T07:03:39.531Z,11.00
2022-10-08T07:04:39.516Z,11.50
2022-10-08T07:05:39.497Z,10.90
2022-10-08T07:06:39.474Z,10.90
2022-10-08T07:07:39.460Z,10.50
2022-10-08T07:08:39.445Z,10.90
2022-10-08T07:09:39.427Z,10.00
2022-10-08T07:10:39.398Z,10.60
2022-10-08T07:11:39.382Z,10.90
2022-10-08T07:12:39.366Z,10.70
2022-10-08T07:13:39.347Z,10.50
2022-10-08T07:14:39.326Z,11.00
2022-10-08T07:15:39.329Z,10.90
2022-10-08T07:16:39.369Z,10.70
2022-10-08T07:17:39.274Z,10.80
2022-10-08T07:18:39.249Z,11.10
2022-10-08T07:19:39.236Z,10.30
2022-10-08T07:20:39.225Z,11.00
2022-10-08T07:21:39.202Z,10.90
2022-10-08T07:22:39.177Z,10.60
2022-10-08T07:23:39.166Z,9.70
2022-10-08T07:24:39.142Z,10.50
2022-10-08T07:25:39.127Z,10.10
2022-10-08T07:26:39.105Z,10.30
2022-10-08T07:27:44.114Z,9.90
2022-10-08T07:28:39.143Z,9.80
2022-10-08T07:29:39.053Z,10.20
2022-10-08T07:30:39.031Z,9.40
2022-10-08T07:31:39.075Z,9.50
2022-10-08T07:32:38.999Z,9.70
2022-10-08T07:33:38.979Z,9.60
2022-10-08T07:34:38.961Z,9.90
2022-10-08T07:35:38.946Z,9.50
2022-10-08T07:36:38.927Z,9.30
2022-10-08T07:37:38.911Z,9.90
2022-10-08T07:38:38.891Z,8.90
2022-10-08T07:39:38.873Z,9.30
2022-10-08T07:40:38.858Z,8.90
2022-10-08T07:41:38.837Z,8.70
2022-10-08T07:42:38.818Z,8.60
2022-10-08T07:43:38.802Z,8.40
2022-10-08T07:44:38.788Z,7.80
2022-10-08T07:45:38.807Z,8.70
2022-10-08T07:46:38.750Z,8.50
2022-10-08T07:47:38.755Z,7.90
2022-10-08T07:48:38.718Z,8.50
2022-10-08T07:49:38.705Z,8.40
2022-10-08T07:50:38.695Z,8.20
2022-10-08T07:51:38.680Z,7.50
2022-10-08T07:52:38.660Z,7.50
2022-10-08T07:53:38.652Z,7.40
2022-10-08T07:54:38.646Z,7.00
2022-10-08T07:55:38.621Z,7.10
2022-10-08T07:56:38.609Z,7.00
2022-10-08T07:57:38.600Z,6.50
2022-10-08T07:58:38.586Z,6.70
2022-10-08T07:59:38.578Z,6.80
2022-10-08T08:00:38.614Z,6.50
2022-10-08T08:01:38.557Z,6.20
2022-10-08T08:02:38.549Z,6.10
2022-10-08T08:03:38.561Z,6.30
2022-10-08T08:04:38.531Z,5.80
2022-10-08T08:05:38.522Z,6.20
2022-10-08T08:06:38.511Z,6.40
2022-10-08T08:07:38.505Z,6.10
2022-10-08T08:08:38.500Z,5.90
2022-10-08T08:09:38.487Z,5.30
2022-10-08T08:10:38.481Z,5.50
2022-10-08T08:11:38.475Z,6.10
2022-10-08T08:12:38.473Z,6.10
2022-10-08T08:13:38.462Z,5.80
2022-10-08T08:14:38.456Z,5.70
2022-10-08T08:15:38.446Z,5.20
2022-10-08T08:16:38.466Z,5.00
2022-10-08T08:17:38.433Z,5.30
2022-10-08T08:18:38.430Z,5.30
2022-10-08T08:19:38.440Z,5.40
2022-10-08T08:20:38.416Z,5.20
2022-10-08T08:21:38.417Z,4.90
2022-10-08T08:22:38.396Z,5.60
2022-10-08T08:23:38.393Z,5.00
2022-10-08T08:24:38.384Z,5.10
2022-10-08T08:25:38.377Z,5.20
2022-10-08T08:26:38.364Z,5.40
2022-10-08T08:27:38.354Z,5.50
2022-10-08T08:28:38.406Z,5.00
2022-10-08T08:29:38.339Z,6.40
2022-10-08T08:30:38.326Z,5.90
2022-10-08T08:31:38.427Z,5.90
2022-10-08T08:32:38.304Z,6.20
2022-10-08T08:33:38.294Z,5.80
2022-10-08T08:34:38.279Z,5.30
2022-10-08T08:35:38.283Z,5.00
2022-10-08T08:36:38.256Z,5.00
2022-10-08T08:37:38.244Z,5.80
2022-10-08T08:38:38.231Z,5.20
2022-10-08T08:39:38.220Z,5.20
2022-10-08T08:40:38.208Z,5.50
2022-10-08T08:41:38.195Z,5.10
2022-10-08T08:42:38.186Z,5.20
2022-10-08T08:43:38.183Z,5.10
2022-10-08T08:44:38.164Z,5.50
2022-10-08T08:45:47.153Z,5.60
2022-10-08T08:46:38.198Z,5.70
2022-10-08T08:47:38.127Z,4.80
2022-10-08T08:48:38.121Z,5.00
2022-10-08T08:49:38.101Z,5.00
2022-10-08T08:50:38.085Z,4.80
2022-10-08T08:51:38.100Z,5.40
2022-10-08T08:52:38.062Z,5.20
2022-10-08T08:53:38.056Z,4.80
2022-10-08T08:54:38.048Z,4.60
2022-10-08T08:55:38.038Z,4.70
2022-10-08T08:56:38.023Z,4.50
2022-10-08T08:57:38.019Z,4.10
2022-10-08T08:58:38.002Z,4.20
2022-10-08T08:59:37.993Z,3.90
2022-10-08T09:00:37.987Z,4.10
2022-10-08T09:01:38.005Z,4.40
2022-10-08T09:02:37.959Z,4.10
2022-10-08T09:03:37.953Z,4.40
2022-10-08T09:04:42.939Z,4.40
2022-10-08T09:05:37.997Z,4.40
2022-10-08T09:06:37.920Z,4.00
2022-10-08T09:07:37.925Z,4.00
2022-10-08T09:08:37.900Z,4.10
2022-10-08T09:09:37.897Z,3.60
2022-10-08T09:10:37.882Z,3.80
2022-10-08T09:11:37.873Z,3.90
2022-10-08T09:12:37.865Z,3.70
2022-10-08T09:13:37.854Z,3.60
2022-10-08T09:14:37.847Z,4.20
2022-10-08T09:15:37.838Z,3.70
2022-10-08T09:16:37.908Z,3.50
2022-10-08T09:17:37.826Z,3.60
2022-10-08T09:18:37.814Z,4.00
2022-10-08T09:19:37.804Z,3.70
2022-10-08T09:20:40.232Z,3.50
2022-10-08T09:21:37.789Z,3.30
2022-10-08T09:22:37.795Z,3.60
2022-10-08T09:23:37.790Z,3.60
2022-10-08T09:24:37.761Z,3.30
2022-10-08T09:25:37.757Z,3.60
2022-10-08T09:26:37.739Z,3.60
2022-10-08T09:27:37.734Z,3.00
2022-10-08T09:28:37.792Z,3.40
2022-10-08T09:29:37.722Z,3.90
2022-10-08T09:30:37.765Z,3.20
2022-10-08T09:31:37.792Z,3.70
2022-10-08T09:32:37.692Z,3.90
2022-10-08T09:33:37.676Z,3.20
2022-10-08T09:34:37.660Z,3.60
2022-10-08T09:35:37.653Z,3.10
2022-10-08T09:36:37.653Z,3.40
2022-10-08T09:37:37.640Z,3.40
2022-10-08T09:38:37.618Z,3.00
2022-10-08T09:39:37.636Z,3.20
2022-10-08T09:40:37.609Z,3.00
2022-10-08T09:41:37.587Z,2.90
2022-10-08T09:42:37.585Z,3.10
2022-10-08T09:43:37.566Z,3.20
2022-10-08T09:44:37.562Z,3.20
2022-10-08T09:45:37.597Z,3.30
2022-10-08T09:46:37.534Z,3.00
2022-10-08T09:47:37.526Z,2.90
2022-10-08T09:48:37.508Z,3.20
2022-10-08T09:49:37.497Z,3.10
2022-10-08T09:50:37.482Z,3.00
2022-10-08T09:51:37.476Z,3.40
2022-10-08T09:52:37.461Z,3.20
2022-10-08T09:53:37.453Z,2.90
2022-10-08T09:54:37.437Z,2.70
2022-10-08T09:55:37.447Z,2.80
2022-10-08T09:56:37.413Z,3.10
2022-10-08T09:57:40.425Z,3.30
2022-10-08T09:58:37.397Z,3.10
2022-10-08T09:59:37.381Z,2.80
2022-10-08T10:00:37.366Z,3.00
2022-10-08T10:01:37.422Z,2.90
2022-10-08T10:02:37.340Z,2.90
2022-10-08T10:03:37.383Z,2.90
2022-10-08T10:04:37.321Z,3.10
2022-10-08T10:05:37.311Z,2.80
2022-10-08T10:06:37.301Z,3.10
2022-10-08T10:07:37.286Z,2.90
2022-10-08T10:08:37.272Z,2.90
2022-10-08T10:09:37.260Z,2.70
2022-10-08T10:10:37.253Z,3.00
2022-10-08T10:11:37.257Z,2.70
2022-10-08T10:12:37.228Z,3.00
2022-10-08T10:13:37.218Z,2.90
2022-10-08T10:14:37.205Z,2.40
2022-10-08T10:15:37.195Z,2.10
2022-10-08T10:16:37.237Z,2.40
2022-10-08T10:17:37.176Z,2.10
2022-10-08T10:18:37.158Z,2.00
2022-10-08T10:19:37.149Z,2.10
2022-10-08T10:20:37.138Z,2.50
2022-10-08T10:21:37.128Z,2.90
2022-10-08T10:22:37.110Z,2.50
2022-10-08T10:23:37.100Z,3.30
2022-10-08T10:24:37.090Z,2.60
2022-10-08T10:25:37.091Z,2.40
2022-10-08T10:26:37.062Z,2.30
2022-10-08T10:27:37.073Z,2.60
2022-10-08T10:28:37.160Z,2.20
2022-10-08T10:29:37.028Z,2.20
2022-10-08T10:30:37.042Z,2.40
2022-10-08T10:31:37.010Z,2.50
2022-10-08T10:32:36.995Z,2.30
2022-10-08T10:33:36.983Z,2.40
2022-10-08T10:34:36.970Z,2.10
2022-10-08T10:35:36.961Z,2.30
2022-10-08T10:36:36.953Z,2.50
2022-10-08T10:37:36.942Z,2.40
2022-10-08T10:38:42.122Z,2.30
2022-10-08T10:39:36.919Z,2.10
2022-10-08T10:40:36.915Z,2.60
2022-10-08T10:41:36.897Z,2.10
2022-10-08T10:42:36.884Z,2.50
2022-10-08T10:43:36.896Z,2.10
2022-10-08T10:44:36.865Z,2.10
2022-10-08T10:45:36.860Z,2.00
2022-10-08T10:46:36.901Z,2.10
2022-10-08T10:47:36.837Z,1.90
2022-10-08T10:48:36.829Z,2.10
2022-10-08T10:49:36.815Z,2.50
2022-10-08T10:50:36.804Z,1.80
2022-10-08T10:51:36.794Z,2.00
2022-10-08T10:52:36.790Z,2.00
2022-10-08T10:53:36.773Z,2.20
2022-10-08T10:54:36.760Z,2.20
2022-10-08T10:55:36.764Z,1.90
2022-10-08T10:56:36.741Z,2.00
2022-10-08T10:57:36.736Z,1.90
2022-10-08T10:58:36.727Z,2.10
2022-10-08T10:59:36.737Z,1.90
2022-10-08T11:00:36.703Z,1.90
2022-10-08T11:01:36.725Z,1.80
2022-10-08T11:02:36.755Z,1.90
2022-10-08T11:03:36.672Z,2.20
2022-10-08T11:04:36.663Z,2.30
2022-10-08T11:05:36.649Z,1.90
2022-10-08T11:06:36.637Z,2.10
2022-10-08T11:07:36.627Z,1.90
2022-10-08T11:08:36.616Z,1.70
2022-10-08T11:09:36.609Z,1.90
2022-10-08T11:10:36.591Z,1.80
2022-10-08T11:11:36.585Z,1.70
2022-10-08T11:12:36.570Z,1.90
2022-10-08T11:13:36.565Z,1.50
2022-10-08T11:14:36.544Z,1.60
2022-10-08T11:15:36.650Z,1.80
2022-10-08T11:16:36.515Z,1.80
2022-10-08T11:17:36.507Z,2.30
2022-10-08T11:18:36.490Z,1.90
2022-10-08T11:19:36.477Z,1.80
2022-10-08T11:20:36.467Z,1.80
2022-10-08T11:21:36.451Z,1.60
2022-10-08T11:22:36.437Z,2.10
2022-10-08T11:23:36.421Z,1.90
2022-10-08T11:24:36.412Z,1.80
2022-10-08T11:25:55.754Z,2.00
2022-10-08T11:26:36.380Z,2.10
2022-10-08T11:27:36.369Z,1.90
2022-10-08T11:28:36.388Z,2.20
2022-10-08T11:29:36.345Z,2.00
2022-10-08T11:30:36.366Z,2.20
2022-10-08T11:31:36.329Z,2.20
2022-10-08T11:32:36.294Z,2.00
2022-10-08T11:33:36.286Z,2.00
2022-10-08T11:34:36.263Z,2.30
2022-10-08T11:35:36.248Z,2.20
2022-10-08T11:36:36.238Z,2.20
2022-10-08T11:37:36.228Z,2.00
2022-10-08T11:38:36.209Z,2.60
2022-10-08T11:39:36.191Z,2.50
2022-10-08T11:40:36.180Z,2.00
2022-10-08T11:41:36.169Z,2.30
2022-10-08T11:42:40.687Z,2.80
2022-10-08T11:43:36.135Z,2.20
2022-10-08T11:44:36.121Z,2.00
2022-10-08T11:45:36.114Z,2.40
2022-10-08T11:46:36.127Z,2.10
2022-10-08T11:47:36.101Z,2.10
2022-10-08T11:48:36.074Z,2.10
2022-10-08T11:49:36.057Z,1.90
2022-10-08T11:50:36.044Z,2.20
2022-10-08T11:51:36.032Z,1.90
2022-10-08T11:52:36.018Z,2.30
2022-10-08T11:53:36.004Z,1.70
2022-10-08T11:54:35.996Z,2.10
2022-10-08T11:55:35.977Z,2.20
2022-10-08T11:56:35.962Z,2.00
2022-10-08T11:58:02.940Z,2.00
2022-10-08T11:58:35.944Z,1.90
2022-10-08T11:59:35.931Z,2.20
2022-10-08T12:00:35.918Z,1.90
2022-10-08T12:01:35.907Z,2.00
2022-10-08T12:02:36.107Z,2.20
2022-10-08T12:03:35.975Z,2.10
2022-10-08T12:04:35.869Z,1.80
2022-10-08T12:05:35.859Z,1.70
2022-10-08T12:06:35.845Z,2.30
2022-10-08T12:07:35.836Z,1.70
2022-10-08T12:08:35.819Z,1.90
2022-10-08T12:09:35.814Z,1.80
2022-10-08T12:10:35.792Z,1.80
2022-10-08T12:11:35.792Z,1.90
2022-10-08T12:12:35.773Z,2.20
2022-10-08T12:13:35.764Z,2.50
2022-10-08T12:14:35.744Z,2.00
2022-10-08T12:15:35.735Z,1.60
2022-10-08T12:16:35.721Z,1.90
2022-10-08T12:17:35.715Z,2.00
2022-10-08T12:18:35.699Z,2.00
2022-10-08T12:19:35.912Z,1.80
2022-10-08T12:20:35.679Z,2.00
2022-10-08T12:21:35.669Z,1.80
2022-10-08T12:22:35.653Z,1.80
2022-10-08T12:23:35.643Z,1.70
2022-10-08T12:24:35.629Z,1.90
2022-10-08T12:25:35.633Z,1.90
2022-10-08T12:26:35.624Z,2.30
2022-10-08T12:27:35.596Z,1.70
2022-10-08T12:28:35.771Z,1.90
2022-10-08T12:29:35.572Z,2.30
2022-10-08T12:30:35.561Z,2.30
2022-10-08T12:31:35.782Z,1.90
2022-10-08T12:32:35.541Z,1.80
2022-10-08T12:33:35.528Z,1.90
2022-10-08T12:34:35.520Z,2.30
2022-10-08T12:35:35.523Z,2.10
2022-10-08T12:36:35.489Z,1.80
2022-10-08T12:37:35.478Z,2.20
2022-10-08T12:38:35.464Z,1.60
2022-10-08T12:39:35.466Z,1.80
2022-10-08T12:40:35.442Z,1.70
2022-10-08T12:41:35.436Z,2.30
2022-10-08T12:42:35.415Z,2.10
2022-10-08T12:43:35.408Z,2.10
2022-10-08T12:44:35.401Z,2.00
2022-10-08T12:45:35.386Z,2.20
2022-10-08T12:46:35.436Z,1.80
2022-10-08T12:47:35.354Z,1.60
2022-10-08T12:48:35.344Z,1.80
2022-10-08T12:49:35.330Z,2.10
2022-10-08T12:50:35.315Z,1.80
2022-10-08T12:51:35.326Z,1.80
2022-10-08T12:52:35.295Z,2.00
2022-10-08T12:53:35.285Z,1.70
2022-10-08T12:54:35.272Z,2.30
2022-10-08T12:55:38.016Z,1.60
2022-10-08T12:56:35.251Z,1.70
2022-10-08T12:57:35.236Z,1.70
2022-10-08T12:58:35.230Z,1.60
2022-10-08T12:59:35.212Z,1.80
2022-10-08T13:00:35.267Z,1.70
2022-10-08T13:01:35.237Z,1.80
2022-10-08T13:02:35.180Z,2.10
2022-10-08T13:03:35.163Z,1.70
2022-10-08T13:04:35.156Z,1.90
2022-10-08T13:05:35.151Z,1.80
2022-10-08T13:06:35.132Z,1.60
2022-10-08T13:07:35.147Z,2.00
2022-10-08T13:08:35.104Z,1.70
2022-10-08T13:09:35.097Z,2.00
2022-10-08T13:10:35.080Z,1.90
2022-10-08T13:11:35.070Z,1.80
2022-10-08T13:12:35.057Z,1.70
2022-10-08T13:13:35.048Z,1.70
2022-10-08T13:14:35.036Z,1.80